Time;durP1;ratioP1;P1;durP2;ratioP2;P2;SDS_P1;SDS_P2;PMS_P1;PMS_P2;Temp;Humidity;BMP_temperature;BMP_pressure;BME280_temperature;BME280_humidity;BME280_pressure;Samples;Min_cycle;Max_cycle;Signal;HPM_P1;HPM_P2
2022/07/08 00:00:35;;;;;;;10.82;1.98;;;13.50;99.90;;;;;;5072605;28;20105;-26
2022/07/08 00:03:01;;;;;;;12.05;1.55;;;13.40;99.90;;;;;;5073546;28;20089;-27
2022/07/08 00:05:27;;;;;;;9.73;1.65;;;13.40;99.90;;;;;;5074402;28;20044;-26
2022/07/08 00:07:52;;;;;;;8.43;1.30;;;13.30;99.90;;;;;;5073461;28;20127;-26
2022/07/08 00:10:18;;;;;;;12.32;1.73;;;13.30;99.90;;;;;;5073491;28;20110;-26
2022/07/08 00:12:44;;;;;;;10.07;1.88;;;13.30;99.90;;;;;;5073477;28;20083;-26
2022/07/08 00:15:10;;;;;;;11.30;1.80;;;13.30;99.90;;;;;;5072032;28;20052;-26
2022/07/08 00:17:37;;;;;;;14.05;2.38;;;13.30;99.90;;;;;;5073464;28;20106;-26
2022/07/08 00:20:04;;;;;;;10.95;2.45;;;13.30;99.90;;;;;;5072367;28;20084;-26
2022/07/08 00:22:29;;;;;;;9.38;1.45;;;13.30;99.90;;;;;;5072408;28;20474;-26
2022/07/08 00:24:55;;;;;;;15.20;2.53;;;13.30;99.90;;;;;;5073349;28;20128;-26
2022/07/08 00:27:21;;;;;;;10.68;1.98;;;13.30;99.90;;;;;;5073525;28;20087;-26
2022/07/08 00:29:47;;;;;;;15.20;2.25;;;13.30;99.90;;;;;;5073352;28;20045;-26
2022/07/08 00:32:13;;;;;;;12.63;1.48;;;13.10;99.90;;;;;;5073331;28;20088;-26
2022/07/08 00:34:39;;;;;;;9.20;1.58;;;13.10;99.90;;;;;;5055604;28;20525;-26
2022/07/08 00:37:06;;;;;;;11.43;1.58;;;13.00;99.90;;;;;;5055603;28;20478;-26
2022/07/08 00:39:32;;;;;;;16.58;1.77;;;13.00;99.90;;;;;;5073226;28;20048;-26
2022/07/08 00:41:58;;;;;;;18.05;2.40;;;12.90;99.90;;;;;;5073151;28;20056;-26
2022/07/08 00:44:24;;;;;;;11.02;1.50;;;12.90;99.90;;;;;;5073714;28;20076;-26
2022/07/08 00:46:50;;;;;;;12.27;2.08;;;12.90;99.90;;;;;;5073142;28;20040;-26
2022/07/08 00:49:16;;;;;;;12.70;2.63;;;12.80;99.90;;;;;;5071792;28;20056;-27
2022/07/08 00:51:43;;;;;;;14.30;1.92;;;12.70;99.90;;;;;;5071943;28;20052;-26
2022/07/08 00:54:12;;;;;;;7.80;1.90;;;12.70;1.00;;;;;;5073892;28;20063;-27
2022/07/08 00:56:38;;;;;;;16.58;2.53;;;12.60;1.00;;;;;;5073584;28;20045;-26
2022/07/08 00:59:05;;;;;;;11.20;1.33;;;12.60;1.00;;;;;;5073004;28;20041;-26
2022/07/08 01:01:30;;;;;;;12.07;1.95;;;12.50;1.00;;;;;;5073532;28;20062;-26
2022/07/08 01:03:56;;;;;;;12.50;1.80;;;12.40;1.00;;;;;;5073210;28;20135;-26
2022/07/08 01:06:22;;;;;;;11.02;1.58;;;12.30;1.00;;;;;;5072988;28;20067;-26
2022/07/08 01:08:48;;;;;;;17.27;1.70;;;12.20;1.00;;;;;;5074706;28;20041;-26
2022/07/08 01:11:14;;;;;;;10.88;1.75;;;12.10;1.00;;;;;;5075248;28;20051;-26
2022/07/08 01:13:40;;;;;;;13.68;1.73;;;12.00;1.00;;;;;;5077012;28;20123;-26
2022/07/08 01:16:06;;;;;;;7.97;1.42;;;11.90;1.00;;;;;;5076913;28;20060;-26
2022/07/08 01:18:32;;;;;;;11.45;1.50;;;11.70;1.00;;;;;;5076307;28;20052;-26
2022/07/08 01:20:58;;;;;;;17.48;2.17;;;11.50;1.00;;;;;;5076367;28;20540;-26
2022/07/08 01:23:25;;;;;;;6.93;1.58;;;11.30;1.00;;;;;;5076815;28;20075;-26
2022/07/08 01:25:52;;;;;;;7.38;1.40;;;11.10;1.00;;;;;;5077061;28;20063;-27
2022/07/08 01:28:18;;;;;;;8.27;2.42;;;11.10;59.80;;;;;;5075794;28;20563;-26
2022/07/08 01:30:44;;;;;;;11.80;2.10;;;11.10;99.90;;;;;;5076706;28;20044;-26
2022/07/08 01:33:10;;;;;;;11.45;1.65;;;11.20;99.90;;;;;;5076117;28;20478;-26
2022/07/08 01:35:36;;;;;;;12.88;1.77;;;11.20;99.90;;;;;;5076075;28;20052;-26
2022/07/08 01:38:02;;;;;;;15.93;2.00;;;11.20;99.90;;;;;;5076043;28;20047;-26
2022/07/08 01:40:28;;;;;;;9.32;1.55;;;11.10;99.90;;;;;;5075965;28;20131;-26
2022/07/08 01:42:54;;;;;;;9.88;2.00;;;11.10;99.90;;;;;;5074675;28;20044;-26
2022/07/08 01:45:20;;;;;;;9.77;1.73;;;11.10;99.90;;;;;;5074934;28;20052;-26
2022/07/08 01:47:46;;;;;;;12.55;1.80;;;11.00;99.90;;;;;;5076335;28;20040;-26
2022/07/08 01:50:11;;;;;;;10.25;1.75;;;10.90;99.90;;;;;;5074534;28;20047;-27
2022/07/08 01:52:37;;;;;;;16.00;2.58;;;10.80;99.90;;;;;;5075779;28;20046;-27
2022/07/08 01:55:04;;;;;;;11.95;2.00;;;10.80;99.90;;;;;;5075717;28;20094;-26
2022/07/08 01:57:31;;;;;;;8.23;1.88;;;10.60;99.90;;;;;;5074435;28;20456;-26
2022/07/08 01:59:57;;;;;;;11.85;2.03;;;10.60;99.90;;;;;;5074659;28;20128;-26
2022/07/08 02:02:23;;;;;;;8.65;1.77;;;10.50;99.90;;;;;;5075425;28;20131;-26
2022/07/08 02:04:48;;;;;;;14.45;3.05;;;10.60;99.90;;;;;;5074595;28;20385;-26
2022/07/08 02:07:15;;;;;;;10.07;2.20;;;10.70;1.00;;;;;;5058024;28;20386;-26
2022/07/08 02:09:41;;;;;;;20.17;2.90;;;10.80;1.00;;;;;;5075484;28;20056;-26
2022/07/08 02:12:20;;;;;;;10.07;1.77;;;10.90;1.00;;;;;;5075323;28;20486;-26
2022/07/08 02:14:48;;;;;;;11.50;2.17;;;10.90;1.00;;;;;;5074708;28;20053;-26
2022/07/08 02:17:15;;;;;;;13.95;2.42;;;10.70;1.00;;;;;;5057677;28;20049;-26
2022/07/08 02:19:41;;;;;;;19.50;2.53;;;10.60;1.00;;;;;;5073128;28;20080;-26
2022/07/08 02:22:08;;;;;;;12.82;2.63;;;10.50;1.00;;;;;;5075186;28;20073;-26
2022/07/08 02:24:34;;;;;;;11.60;3.03;;;10.30;1.00;;;;;;5075100;28;20486;-28
2022/07/08 02:27:00;;;;;;;13.45;2.33;;;10.10;1.00;;;;;;5074376;28;20470;-27
2022/07/08 02:29:26;;;;;;;14.50;3.10;;;10.00;1.00;;;;;;5075475;28;20040;-26
2022/07/08 02:31:51;;;;;;;14.25;3.35;;;9.80;1.00;;;;;;5074940;28;20051;-26
2022/07/08 02:34:17;;;;;;;18.55;3.35;;;9.80;1.00;;;;;;5074932;28;20055;-26
2022/07/08 02:36:43;;;;;;;15.20;3.50;;;9.70;1.00;;;;;;5073859;28;20047;-26
2022/07/08 02:39:09;;;;;;;11.50;3.35;;;9.70;1.00;;;;;;5073640;28;20040;-26
2022/07/08 02:41:38;;;;;;;16.13;3.83;;;9.70;1.00;;;;;;5074765;28;20051;-26
2022/07/08 02:44:04;;;;;;;12.73;3.75;;;9.80;1.00;;;;;;5074735;28;20123;-26
2022/07/08 02:46:30;;;;;;;18.55;3.42;;;9.80;1.00;;;;;;5073738;28;20474;-26
2022/07/08 02:48:56;;;;;;;12.50;3.88;;;9.70;1.00;;;;;;5074821;28;20045;-26
2022/07/08 02:51:22;;;;;;;11.93;3.90;;;9.60;1.00;;;;;;5074269;28;20494;-26
2022/07/08 02:53:48;;;;;;;16.00;3.80;;;9.60;3.50;;;;;;5074556;28;20131;-26
2022/07/08 02:56:14;;;;;;;10.73;4.20;;;9.50;67.50;;;;;;5074523;28;20066;-26
2022/07/08 02:58:40;;;;;;;12.95;3.30;;;9.50;85.60;;;;;;5074527;28;20396;-27
2022/07/08 03:01:05;;;;;;;12.02;2.75;;;9.40;46.10;;;;;;5074390;28;20044;-26
2022/07/08 03:03:31;;;;;;;15.88;3.25;;;9.40;31.10;;;;;;5040114;28;20390;-26
2022/07/08 03:05:57;;;;;;;11.35;3.58;;;9.30;14.10;;;;;;5073877;28;20045;-26
2022/07/08 03:08:23;;;;;;;10.85;3.10;;;9.20;5.90;;;;;;5073943;28;20386;-26
2022/07/08 03:10:49;;;;;;;11.82;3.10;;;9.20;8.60;;;;;;5074764;28;20049;-26
2022/07/08 03:13:15;;;;;;;18.60;3.80;;;9.10;31.30;;;;;;5074176;28;20059;-26
2022/07/08 03:15:41;;;;;;;12.75;3.42;;;9.30;99.90;;;;;;5074964;28;20414;-26
2022/07/08 03:18:07;;;;;;;13.25;3.95;;;9.50;99.90;;;;;;5073067;28;20078;-26
2022/07/08 03:20:33;;;;;;;11.85;2.90;;;9.60;99.90;;;;;;5074612;28;20521;-26
2022/07/08 03:22:59;;;;;;;19.83;5.15;;;9.70;99.90;;;;;;5072851;28;20128;-25
2022/07/08 03:25:25;;;;;;;14.45;3.33;;;9.70;99.90;;;;;;5073043;28;20047;-26
2022/07/08 03:27:51;;;;;;;15.18;3.42;;;9.70;99.90;;;;;;5074444;28;20036;-26
2022/07/08 03:30:16;;;;;;;20.23;3.55;;;9.60;99.90;;;;;;5073568;28;20123;-26
2022/07/08 03:32:42;;;;;;;12.88;3.83;;;9.60;99.90;;;;;;5055980;28;20086;-26
2022/07/08 03:35:08;;;;;;;14.35;3.90;;;9.50;99.90;;;;;;5073844;28;20049;-26
2022/07/08 03:37:34;;;;;;;16.10;3.45;;;9.40;99.90;;;;;;5074669;28;20040;-26
2022/07/08 03:41:19;;;;;;;12.27;3.85;;;9.40;99.90;;;;;;5074098;28;20600;-26
2022/07/08 03:42:45;;;;;;;16.48;4.70;;;9.30;99.90;;;;;;5073066;28;20059;-26
2022/07/08 03:45:11;;;;;;;11.57;3.40;;;9.30;99.90;;;;;;5073720;28;20048;-26
2022/07/08 03:47:37;;;;;;;13.15;4.30;;;9.30;99.90;;;;;;5073528;28;20049;-26
2022/07/08 03:50:03;;;;;;;20.90;5.35;;;9.30;99.90;;;;;;5074286;28;20131;-26
2022/07/08 03:52:29;;;;;;;15.00;3.95;;;9.30;99.90;;;;;;5073694;28;20105;-26
2022/07/08 03:54:55;;;;;;;16.17;3.90;;;9.40;99.90;;;;;;5072500;28;20190;-26
2022/07/08 03:57:20;;;;;;;16.33;4.45;;;9.40;99.90;;;;;;5072715;28;20523;-26
2022/07/08 03:59:46;;;;;;;20.50;4.95;;;9.60;99.90;;;;;;5073881;28;20055;-26
2022/07/08 04:02:12;;;;;;;11.25;3.92;;;9.70;1.00;;;;;;5073377;28;20048;-26
2022/07/08 04:04:37;;;;;;;30.50;5.60;;;9.90;1.00;;;;;;5073387;28;20037;-26
2022/07/08 04:07:03;;;;;;;19.05;4.43;;;10.00;1.00;;;;;;5073242;28;20105;-26
2022/07/08 04:09:29;;;;;;;14.93;4.57;;;10.20;1.00;;;;;;5073449;28;20044;-26
2022/07/08 04:11:54;;;;;;;19.23;4.68;;;10.30;1.00;;;;;;5073534;28;20037;-26
2022/07/08 04:14:20;;;;;;;11.65;4.50;;;10.60;1.00;;;;;;5073776;28;20355;-26
2022/07/08 04:16:46;;;;;;;13.52;3.25;;;10.80;5.80;;;;;;5073040;28;20387;-26
2022/07/08 04:19:12;;;;;;;10.77;3.53;;;11.00;52.80;;;;;;5073350;28;20048;-27
2022/07/08 04:21:37;;;;;;;16.15;5.13;;;11.20;94.60;;;;;;5073085;28;20048;-27
2022/07/08 04:24:03;;;;;;;17.65;4.00;;;11.50;99.90;;;;;;5073463;28;20084;-27
2022/07/08 04:26:31;;;;;;;12.85;3.03;;;11.70;99.90;;;;;;5073326;28;20052;-26
2022/07/08 04:28:58;;;;;;;11.02;2.90;;;11.90;99.90;;;;;;5072916;28;20055;-26
2022/07/08 04:31:25;;;;;;;18.35;3.65;;;12.20;99.90;;;;;;5073869;28;20048;-27
2022/07/08 04:33:50;;;;;;;8.90;3.10;;;12.30;99.90;;;;;;5073283;28;20530;-26
2022/07/08 04:36:16;;;;;;;20.75;3.20;;;12.40;99.90;;;;;;5073507;28;20079;-26
2022/07/08 04:38:42;;;;;;;15.85;2.42;;;12.50;99.90;;;;;;5074082;28;20469;-26
2022/07/08 04:41:07;;;;;;;14.95;2.40;;;12.70;99.90;;;;;;5073226;28;20123;-26
2022/07/08 04:43:33;;;;;;;12.13;2.35;;;12.80;99.90;;;;;;5074749;28;20051;-26
2022/07/08 04:45:59;;;;;;;16.13;3.08;;;12.90;35.50;;;;;;5077040;28;20044;-27
2022/07/08 04:48:25;;;;;;;15.25;3.22;;;13.00;1.00;;;;;;5076579;28;20518;-26
2022/07/08 04:50:50;;;;;;;13.57;2.92;;;13.00;1.00;;;;;;5076878;28;20137;-26
2022/07/08 04:53:16;;;;;;;11.90;2.92;;;13.10;1.00;;;;;;5077389;28;20101;-27
2022/07/08 04:55:42;;;;;;;16.65;3.65;;;13.20;1.00;;;;;;5076789;28;20127;-26
2022/07/08 04:58:08;;;;;;;14.75;2.38;;;13.30;1.00;;;;;;5076738;28;20041;-26
2022/07/08 05:00:34;;;;;;;11.98;2.40;;;13.40;1.00;;;;;;5075761;28;20048;-26
2022/07/08 05:03:00;;;;;;;11.35;2.42;;;13.50;1.00;;;;;;5076654;28;20137;-26
2022/07/08 05:05:27;;;;;;;13.35;2.95;;;13.50;1.00;;;;;;5075483;28;20070;-27
2022/07/08 05:07:54;;;;;;;14.13;2.65;;;13.60;1.00;;;;;;5076506;28;20118;-26
2022/07/08 05:10:24;;;;;;;13.23;2.72;;;13.70;1.00;;;;;;5076799;28;20505;-26
2022/07/08 05:12:50;;;;;;;7.43;2.38;;;13.90;1.00;;;;;;5076405;28;20048;-27
2022/07/08 05:15:16;;;;;;;11.25;2.80;;;14.20;1.00;;;;;;5076542;28;20068;-26
2022/07/08 05:17:43;;;;;;;20.48;4.20;;;14.50;1.00;;;;;;5075775;28;20098;-26
2022/07/08 05:20:10;;;;;;;14.88;2.70;;;14.70;99.90;;;;;;5076262;28;20052;-26
2022/07/08 05:22:37;;;;;;;10.40;2.03;;;15.30;99.90;;;;;;5076330;28;20458;-26
2022/07/08 05:25:04;;;;;;;20.58;2.30;;;15.70;1.00;;;;;;5076342;28;20097;-26
2022/07/08 05:27:29;;;;;;;10.95;2.00;;;15.80;99.90;;;;;;5076782;28;20047;-26
2022/07/08 05:29:55;;;;;;;13.15;2.50;;;15.60;99.90;;;;;;5077006;28;20049;-26
2022/07/08 05:32:21;;;;;;;15.60;2.35;;;15.50;1.00;;;;;;5075002;28;20479;-26
2022/07/08 05:34:47;;;;;;;12.00;3.05;;;15.40;1.00;;;;;;5076665;28;20049;-26
2022/07/08 05:37:13;;;;;;;9.98;1.83;;;15.30;1.00;;;;;;5076610;28;20056;-26
2022/07/08 05:39:40;;;;;;;12.88;2.58;;;15.30;1.00;;;;;;5074859;28;20127;-26
2022/07/08 05:42:08;;;;;;;9.60;2.40;;;15.30;1.00;;;;;;5075971;28;20151;-26
2022/07/08 05:44:34;;;;;;;12.75;2.53;;;15.30;1.00;;;;;;5076772;28;20394;-26
2022/07/08 05:47:00;;;;;;;9.27;1.83;;;15.30;1.00;;;;;;5075937;28;20564;-27
2022/07/08 05:49:26;;;;;;;8.73;2.25;;;15.30;1.00;;;;;;5057933;28;20152;-26
2022/07/08 05:51:53;;;;;;;9.48;1.83;;;15.40;1.00;;;;;;5074861;28;20067;-26
2022/07/08 05:54:19;;;;;;;11.35;2.42;;;15.40;1.00;;;;;;5075864;28;20092;-26
2022/07/08 05:56:44;;;;;;;11.07;2.17;;;15.60;1.00;;;;;;5074480;28;20083;-26
2022/07/08 05:59:10;;;;;;;10.05;2.03;;;15.90;1.00;;;;;;5075690;28;20127;-26
2022/07/08 06:01:36;;;;;;;14.68;2.03;;;16.00;99.90;;;;;;5075627;28;20052;-26
2022/07/08 06:04:02;;;;;;;17.58;2.33;;;16.10;99.90;;;;;;5074592;28;20089;-27
2022/07/08 06:06:28;;;;;;;10.93;1.92;;;16.00;99.90;;;;;;5075507;28;20135;-26
2022/07/08 06:08:53;;;;;;;8.25;2.50;;;16.00;99.90;;;;;;5076235;28;20040;-26
2022/07/08 06:11:19;;;;;;;11.15;1.90;;;16.00;99.90;;;;;;5074246;28;20060;-26
2022/07/08 06:13:45;;;;;;;11.27;2.25;;;16.00;99.90;;;;;;5075399;28;20131;-26
2022/07/08 06:16:11;;;;;;;15.00;2.95;;;16.00;99.90;;;;;;5075567;28;20212;-27
2022/07/08 06:18:37;;;;;;;9.50;2.20;;;16.10;99.90;;;;;;5075941;28;20174;-26
2022/07/08 06:21:03;;;;;;;14.07;2.67;;;16.20;99.90;;;;;;5057461;28;20067;-26
2022/07/08 06:23:29;;;;;;;10.98;2.22;;;16.20;99.90;;;;;;5075466;28;20053;-26
2022/07/08 06:25:55;;;;;;;12.85;2.92;;;16.30;99.90;;;;;;5073856;28;20497;-26
2022/07/08 06:28:21;;;;;;;12.35;2.65;;;16.30;99.90;;;;;;5074984;28;20043;-26
2022/07/08 06:30:46;;;;;;;8.20;2.28;;;16.40;99.90;;;;;;5073870;28;20048;-26
2022/07/08 06:33:12;;;;;;;8.52;2.05;;;16.50;99.90;;;;;;5074968;28;20052;-26
2022/07/08 06:35:38;;;;;;;10.05;2.05;;;16.60;99.90;;;;;;5074892;28;20056;-26
2022/07/08 06:38:03;;;;;;;6.05;1.75;;;17.00;43.90;;;;;;5074934;28;20037;-27
2022/07/08 06:40:32;;;;;;;8.75;1.52;;;17.50;1.00;;;;;;5074925;28;20055;-26
2022/07/08 06:42:57;;;;;;;16.20;2.70;;;18.00;1.00;;;;;;5073532;28;20559;-26
2022/07/08 06:45:23;;;;;;;12.07;1.80;;;18.30;99.90;;;;;;5074774;28;20048;-26
2022/07/08 06:47:49;;;;;;;10.15;1.80;;;19.10;99.90;;;;;;5074000;28;20097;-26
2022/07/08 06:50:15;;;;;;;11.80;2.10;;;19.50;1.00;;;;;;5074645;28;20071;-26
2022/07/08 06:52:40;;;;;;;7.75;2.40;;;19.20;1.00;;;;;;5075099;28;20059;-27
2022/07/08 06:55:06;;;;;;;11.80;2.28;;;18.60;1.00;;;;;;5056912;28;20092;-27
2022/07/08 06:57:32;;;;;;;9.75;2.08;;;18.20;99.90;;;;;;5074463;28;20051;-26
2022/07/08 06:59:58;;;;;;;10.65;1.88;;;18.10;99.90;;;;;;5074409;28;20041;-27
2022/07/08 07:02:24;;;;;;;10.80;1.90;;;17.90;99.90;;;;;;5073153;28;20174;-26
2022/07/08 07:04:50;;;;;;;10.05;2.35;;;17.90;99.90;;;;;;5074184;28;20078;-27
2022/07/08 07:07:16;;;;;;;11.40;2.10;;;18.10;99.90;;;;;;5073774;28;20090;-26
2022/07/08 07:09:41;;;;;;;11.80;2.10;;;18.40;99.90;;;;;;5074484;28;20552;-27
2022/07/08 07:12:08;;;;;;;10.18;2.17;;;18.90;99.90;;;;;;5074246;28;20040;-26
2022/07/08 07:14:34;;;;;;;10.40;2.50;;;18.90;1.00;;;;;;5074710;28;20132;-26
2022/07/08 07:17:00;;;;;;;8.82;1.90;;;18.60;99.90;;;;;;5074636;28;20057;-26
2022/07/08 07:19:27;;;;;;;14.73;2.20;;;18.50;42.50;;;;;;5074277;28;20051;-26
2022/07/08 07:21:53;;;;;;;14.05;2.05;;;18.50;99.90;;;;;;5073935;28;20106;-27
2022/07/08 07:24:19;;;;;;;9.57;1.88;;;18.60;99.90;;;;;;5073717;28;20569;-26
2022/07/08 07:26:45;;;;;;;7.85;1.73;;;18.70;99.90;;;;;;5072860;28;20132;-26
2022/07/08 07:29:10;;;;;;;7.68;1.55;;;18.80;1.00;;;;;;5074686;28;20040;-27
2022/07/08 07:31:36;;;;;;;7.47;1.25;;;18.80;1.00;;;;;;5072497;28;20559;-27
2022/07/08 07:34:03;;;;;;;9.38;2.28;;;18.90;1.00;;;;;;5074005;28;20053;-27
2022/07/08 07:36:30;;;;;;;9.70;1.90;;;18.70;99.90;;;;;;5074449;28;20394;-26
2022/07/08 07:38:56;;;;;;;8.73;2.13;;;18.80;1.00;;;;;;5073930;28;20438;-27
2022/07/08 07:41:21;;;;;;;6.43;1.50;;;18.90;1.00;;;;;;5073818;28;20086;-26
2022/07/08 07:43:47;;;;;;;8.02;2.00;;;18.90;99.90;;;;;;5073595;28;20055;-26
2022/07/08 07:46:14;;;;;;;16.15;2.88;;;18.90;1.00;;;;;;5073812;28;20040;-26
2022/07/08 07:48:39;;;;;;;8.23;1.90;;;18.80;1.00;;;;;;5073661;28;20040;-26
2022/07/08 07:51:05;;;;;;;7.18;1.83;;;18.80;1.00;;;;;;5074337;28;20053;-26
2022/07/08 07:53:31;;;;;;;7.13;1.55;;;19.00;1.00;;;;;;5073038;28;20040;-26
2022/07/08 07:56:00;;;;;;;8.63;1.60;;;19.00;1.00;;;;;;5073957;28;20124;-26
2022/07/08 07:58:25;;;;;;;9.48;2.40;;;19.20;99.90;;;;;;5072518;28;20128;-26
2022/07/08 08:00:52;;;;;;;9.27;2.00;;;19.40;99.90;;;;;;5072453;28;20127;-26
2022/07/08 08:03:18;;;;;;;9.07;2.13;;;19.40;99.90;;;;;;5074135;28;20040;-27
2022/07/08 08:05:44;;;;;;;11.02;2.70;;;19.30;99.90;;;;;;5074108;28;20043;-27
2022/07/08 08:08:10;;;;;;;8.00;1.90;;;19.10;1.00;;;;;;5073540;28;20051;-27
2022/07/08 08:10:36;;;;;;;6.38;1.50;;;19.10;1.00;;;;;;5072914;28;20044;-26
2022/07/08 08:13:02;;;;;;;12.70;2.25;;;19.00;99.90;;;;;;5073523;28;20174;-27
2022/07/08 08:15:33;;;;;;;5.22;1.90;;;19.00;99.90;;;;;;5073140;28;20061;-26
2022/07/08 08:18:00;;;;;;;10.43;2.35;;;18.90;99.90;;;;;;5076315;28;20037;-26
2022/07/08 08:20:27;;;;;;;5.45;1.50;;;19.00;99.90;;;;;;5077847;28;20067;-27
2022/07/08 08:22:53;;;;;;;11.13;2.20;;;19.00;1.00;;;;;;5077526;28;20048;-26
2022/07/08 08:25:20;;;;;;;7.72;2.13;;;18.90;99.90;;;;;;5077991;28;20569;-26
2022/07/08 08:27:46;;;;;;;5.75;1.60;;;18.90;99.90;;;;;;5077331;28;20048;-26
2022/07/08 08:30:12;;;;;;;11.30;2.05;;;18.90;99.90;;;;;;5077327;28;20048;-26
2022/07/08 08:32:38;;;;;;;8.88;2.08;;;18.90;1.00;;;;;;5077268;28;20040;-26
2022/07/08 08:35:05;;;;;;;8.27;1.83;;;19.00;1.00;;;;;;5077260;28;20398;-27
2022/07/08 08:37:31;;;;;;;11.90;2.47;;;19.10;99.90;;;;;;5077189;28;20040;-26
2022/07/08 08:40:05;;;;;;;8.63;2.03;;;19.10;99.90;;;;;;5076173;28;20052;-26
2022/07/08 08:42:31;;;;;;;6.53;1.85;;;19.10;99.90;;;;;;5076217;28;20080;-26
2022/07/08 08:44:58;;;;;;;8.48;1.95;;;19.00;99.90;;;;;;5077323;28;20067;-26
2022/07/08 08:47:28;;;;;;;6.28;1.95;;;19.10;99.90;;;;;;5076692;28;20574;-26
2022/07/08 08:49:56;;;;;;;6.65;1.63;;;19.00;99.90;;;;;;5077579;28;20057;-26
2022/07/08 08:52:23;;;;;;;7.93;1.83;;;19.00;99.90;;;;;;5076862;28;20048;-27
2022/07/08 08:54:51;;;;;;;7.90;1.83;;;19.10;99.90;;;;;;5077653;28;20048;-26
2022/07/08 08:57:18;;;;;;;6.70;1.90;;;19.00;99.90;;;;;;5077625;28;20052;-27
2022/07/08 08:59:46;;;;;;;8.38;1.60;;;19.10;99.90;;;;;;5075471;28;20084;-27
2022/07/08 09:02:12;;;;;;;8.18;1.50;;;19.20;99.90;;;;;;5077494;28;20052;-27
2022/07/08 09:04:38;;;;;;;10.02;1.75;;;19.30;99.90;;;;;;5076530;28;20048;-26
2022/07/08 09:07:05;;;;;;;9.32;1.83;;;19.40;99.90;;;;;;5075508;28;20041;-26
2022/07/08 09:09:30;;;;;;;5.63;1.48;;;19.40;1.00;;;;;;5076551;28;20391;-27
2022/07/08 09:11:56;;;;;;;8.52;1.75;;;19.40;1.00;;;;;;5077345;28;20098;-27
2022/07/08 09:14:23;;;;;;;5.90;1.38;;;19.60;1.00;;;;;;5077303;28;20119;-27
2022/07/08 09:17:14;;;;;;;9.15;1.60;;;19.70;99.90;;;;;;5077298;28;20056;-26
2022/07/08 09:19:46;;;;;;;5.88;1.45;;;19.90;1.00;;;;;;5076310;28;20040;-26
2022/07/08 09:22:12;;;;;;;;;;;19.90;1.00;;;;;;5077615;28;20040;-26
2022/07/08 09:24:39;;;;;;;6.57;1.52;;;19.60;1.00;;;;;;5076400;28;19927;-27
2022/07/08 09:27:07;;;;;;;8.25;1.13;;;19.60;1.00;;;;;;5077149;28;20440;-27
2022/07/08 09:29:33;;;;;;;8.23;1.48;;;19.60;1.00;;;;;;5074652;28;20084;-27
2022/07/08 09:32:15;;;;;;;7.78;1.67;;;19.70;1.00;;;;;;5076266;28;20053;-27
2022/07/08 09:34:42;;;;;;;3.50;1.00;;;19.80;98.90;;;;;;5076163;28;20040;-26
2022/07/08 09:37:15;;;;;;;5.55;1.10;;;19.80;1.00;;;;;;5076135;28;20106;-27
2022/07/08 09:39:42;;;;;;;6.07;1.20;;;19.90;1.00;;;;;;5076673;28;20162;-27
2022/07/08 09:42:09;;;;;;;10.18;1.55;;;19.90;84.50;;;;;;5076063;28;20127;-27
2022/07/08 09:44:36;;;;;;;7.38;1.35;;;19.90;9.80;;;;;;5041513;28;20048;-27
2022/07/08 09:47:15;;;;;;;8.30;1.67;;;19.90;16.00;;;;;;5076220;28;20044;-26
2022/07/08 09:49:46;;;;;;;8.32;1.40;;;19.90;14.10;;;;;;5074961;28;20047;-27
2022/07/08 09:52:20;;;;;;;9.10;1.90;;;19.90;91.50;;;;;;5075880;28;20097;-27
2022/07/08 09:54:46;;;;;;;6.55;1.38;;;20.00;71.80;;;;;;5075137;28;20135;-27
2022/07/08 09:57:13;;;;;;;6.95;1.58;;;19.90;93.80;;;;;;5075680;28;20044;-26
2022/07/08 09:59:39;;;;;;;7.15;1.80;;;20.20;99.90;;;;;;5074663;28;20063;-27
2022/07/08 10:02:05;;;;;;;6.22;1.67;;;20.60;1.00;;;;;;5075976;28;20044;-27
2022/07/08 10:04:31;;;;;;;7.47;1.80;;;21.00;1.00;;;;;;5076423;28;20040;-27
2022/07/08 10:06:58;;;;;;;4.85;1.25;;;21.10;1.00;;;;;;5074389;28;20472;-27
2022/07/08 10:09:25;;;;;;;11.75;2.10;;;20.90;1.00;;;;;;5041096;28;20421;-27
2022/07/08 10:11:52;;;;;;;7.72;2.00;;;20.90;1.00;;;;;;5075421;28;20044;-26
2022/07/08 10:14:19;;;;;;;8.43;1.58;;;20.90;1.00;;;;;;5075048;28;20556;-27
2022/07/08 10:16:48;;;;;;;4.65;1.60;;;20.90;40.30;;;;;;5076000;28;20059;-27
2022/07/08 10:19:34;;;;;;;7.35;1.90;;;20.70;1.00;;;;;;5075097;28;20053;-26
2022/07/08 10:22:02;;;;;;;8.40;1.85;;;20.60;1.00;;;;;;5076137;28;20131;-27
2022/07/08 10:24:30;;;;;;;5.28;1.80;;;20.40;1.00;;;;;;5075127;28;20044;-26
2022/07/08 10:27:00;;;;;;;6.90;1.30;;;20.50;99.90;;;;;;5075445;28;20049;-27
2022/07/08 10:29:30;;;;;;;7.53;1.80;;;20.50;1.00;;;;;;5074997;28;20052;-26
2022/07/08 10:31:57;;;;;;;10.35;2.20;;;20.60;1.00;;;;;;5075016;28;20052;-26
2022/07/08 10:34:35;;;;;;;9.23;2.03;;;20.70;1.00;;;;;;5075008;28;20049;-26
2022/07/08 10:37:03;;;;;;;7.35;2.00;;;20.60;1.00;;;;;;5073921;28;20045;-27
2022/07/08 10:39:38;;;;;;;7.90;1.75;;;20.50;1.00;;;;;;5057346;28;20072;-27
2022/07/08 10:42:05;;;;;;;8.45;1.88;;;20.60;43.50;;;;;;5072773;28;20102;-26
2022/07/08 10:44:43;;;;;;;7.30;1.90;;;20.70;99.90;;;;;;5074827;28;20084;-26
2022/07/08 10:47:24;;;;;;;7.68;1.60;;;20.90;1.00;;;;;;5074710;28;20041;-27
2022/07/08 10:49:50;;;;;;;7.75;1.90;;;21.20;1.00;;;;;;5074638;28;20390;-27
2022/07/08 10:52:19;;;;;;;9.10;1.70;;;21.50;1.00;;;;;;5074642;28;20045;-26
2022/07/08 10:54:45;;;;;;;5.63;1.35;;;21.70;1.00;;;;;;5073693;28;20370;-26
2022/07/08 10:57:27;;;;;;;7.53;1.83;;;21.80;99.90;;;;;;5075102;28;20079;-27
2022/07/08 11:00:09;;;;;;;9.40;1.92;;;22.00;1.00;;;;;;5075371;28;20116;-27
2022/07/08 11:02:42;;;;;;;9.07;1.90;;;22.40;99.90;;;;;;5075072;28;20083;-27
2022/07/08 11:05:41;;;;;;;8.27;1.77;;;22.30;96.20;;;;;;5074464;28;20106;-27
2022/07/08 11:08:19;;;;;;;6.07;1.80;;;22.10;99.90;;;;;;5073546;28;20088;-27
2022/07/08 11:10:46;;;;;;;6.68;1.48;;;21.90;99.90;;;;;;5056419;28;20090;-26
2022/07/08 11:13:11;;;;;;;6.65;1.80;;;21.90;1.00;;;;;;5074250;28;20040;-27
2022/07/08 11:15:37;;;;;;;10.45;2.10;;;22.00;1.00;;;;;;5074293;28;20063;-28
2022/07/08 11:18:04;;;;;;;5.68;1.42;;;22.20;1.00;;;;;;5074066;28;20044;-27
2022/07/08 11:20:32;;;;;;;6.18;1.90;;;22.10;1.00;;;;;;5073728;28;20049;-29
2022/07/08 11:23:04;;;;;;;4.13;1.75;;;21.90;99.90;;;;;;5074055;28;20053;-27
2022/07/08 11:25:32;;;;;;;7.10;1.80;;;22.00;99.90;;;;;;5073811;28;20044;-27
2022/07/08 11:28:00;;;;;;;8.88;2.42;;;22.30;1.00;;;;;;5073930;28;20298;-27
2022/07/08 11:30:30;;;;;;;6.32;2.15;;;22.30;1.00;;;;;;5040336;28;20052;-27
2022/07/08 11:32:55;;;;;;;5.95;2.33;;;22.60;1.00;;;;;;5074017;28;20056;-26
2022/07/08 11:35:22;;;;;;;7.15;1.90;;;23.00;1.00;;;;;;5073921;28;20052;-28
2022/07/08 11:37:48;;;;;;;6.65;1.85;;;22.80;99.90;;;;;;5072955;28;20396;-27
2022/07/08 11:40:18;;;;;;;8.13;2.33;;;22.60;1.00;;;;;;5073891;28;20044;-27
2022/07/08 11:42:44;;;;;;;7.82;2.00;;;22.80;1.00;;;;;;5073829;28;20187;-27
2022/07/08 11:45:11;;;;;;;9.25;2.22;;;22.60;99.90;;;;;;5073806;28;20101;-27
2022/07/08 11:47:37;;;;;;;5.57;2.13;;;22.60;1.00;;;;;;5073750;28;20407;-27
2022/07/08 11:50:04;;;;;;;10.68;2.40;;;22.50;1.00;;;;;;5073429;28;20048;-26
2022/07/08 11:52:30;;;;;;;12.73;3.08;;;21.90;30.70;;;;;;5074031;28;20438;-27
2022/07/08 11:54:57;;;;;;;8.45;2.40;;;21.90;99.90;;;;;;5072716;28;20110;-28
2022/07/08 11:57:23;;;;;;;10.80;3.08;;;22.60;99.90;;;;;;5073628;28;20049;-27
2022/07/08 11:59:49;;;;;;;8.35;2.35;;;22.60;77.10;;;;;;5073645;28;20036;-27
2022/07/08 12:02:20;;;;;;;6.22;2.08;;;22.30;1.00;;;;;;5073630;28;20040;-27
2022/07/08 12:04:47;;;;;;;8.77;2.78;;;22.70;50.00;;;;;;5073626;28;20048;-27
2022/07/08 12:07:24;;;;;;;6.70;2.40;;;23.00;1.00;;;;;;5072357;28;20448;-27
2022/07/08 12:09:54;;;;;;;5.85;1.75;;;23.10;1.00;;;;;;5074018;28;20045;-27
2022/07/08 12:12:24;;;;;;;8.88;2.10;;;23.30;8.30;;;;;;5073524;28;20044;-27
2022/07/08 12:14:50;;;;;;;11.98;2.80;;;23.30;99.90;;;;;;5073148;28;20493;-27
2022/07/08 12:17:27;;;;;;;9.63;2.47;;;23.00;1.00;;;;;;5073475;28;20099;-27
2022/07/08 12:19:53;;;;;;;9.13;2.80;;;22.70;1.00;;;;;;5073502;28;20084;-27
2022/07/08 12:22:48;;;;;;;7.38;2.30;;;22.70;1.00;;;;;;5073408;28;20048;-27
2022/07/08 12:25:19;;;;;;;8.88;2.20;;;22.50;91.60;;;;;;5055448;28;20053;-27
2022/07/08 12:27:58;;;;;;;6.43;2.65;;;22.70;1.00;;;;;;5072900;28;20367;-27
2022/07/08 12:30:29;;;;;;;7.68;2.58;;;23.00;1.00;;;;;;5073391;28;20498;-27
2022/07/08 12:33:00;;;;;;;9.45;2.70;;;22.70;99.90;;;;;;5073302;28;20051;-27
2022/07/08 12:35:31;;;;;;;5.32;2.13;;;22.90;1.00;;;;;;5073873;28;20604;-27
2022/07/08 12:38:10;;;;;;;8.82;2.15;;;22.90;1.00;;;;;;5073819;28;20048;-27
2022/07/08 12:40:41;;;;;;;9.82;2.50;;;23.50;99.90;;;;;;5073308;28;20127;-27
2022/07/08 12:43:08;;;;;;;8.63;2.40;;;23.80;1.00;;;;;;5073211;28;20048;-26
2022/07/08 12:45:34;;;;;;;11.50;2.83;;;24.10;1.00;;;;;;5072273;28;20165;-27
2022/07/08 12:48:04;;;;;;;10.93;2.67;;;24.00;99.90;;;;;;5073110;28;20065;-27